Time;durP1;ratioP1;P1;durP2;ratioP2;P2;SDS_P1;SDS_P2;PMS_P1;PMS_P2;Temp;Humidity;BMP_temperature;BMP_pressure;BME280_temperature;BME280_humidity;BME280_pressure;Samples;Min_cycle;Max_cycle;Signal;HPM_P1;HPM_P2
2021/10/08 00:01:21;;;;;;;3.67;3.37;;;5.80;99.90;;;;;;5014363;28;20263;-63
2021/10/08 00:03:47;;;;;;;4.10;3.70;;;5.80;99.90;;;;;;5014692;28;20438;-63
2021/10/08 00:06:14;;;;;;;4.30;3.67;;;5.90;99.90;;;;;;5014772;28;20179;-63
2021/10/08 00:08:41;;;;;;;4.93;4.53;;;5.80;99.90;;;;;;5014667;28;20264;-63
2021/10/08 00:11:07;;;;;;;3.87;3.53;;;5.80;99.90;;;;;;5015254;28;20442;-63
2021/10/08 00:13:33;;;;;;;4.60;4.20;;;5.70;99.90;;;;;;5014654;28;20450;-63
2021/10/08 00:16:00;;;;;;;4.30;3.90;;;5.70;99.90;;;;;;5014134;28;20793;-63
2021/10/08 00:18:26;;;;;;;3.53;3.27;;;5.70;99.90;;;;;;5013909;28;20179;-63
2021/10/08 00:20:52;;;;;;;4.00;3.60;;;5.60;99.90;;;;;;5014562;28;20421;-63
2021/10/08 00:23:17;;;;;;;5.13;4.10;;;5.60;99.90;;;;;;5014335;28;20430;-62
2021/10/08 00:25:43;;;;;;;3.53;3.23;;;5.70;99.90;;;;;;5014325;28;20250;-63
2021/10/08 00:28:09;;;;;;;3.93;3.60;;;5.60;99.90;;;;;;5014802;28;20175;-63
2021/10/08 00:30:35;;;;;;;5.20;4.57;;;5.50;99.90;;;;;;5015045;28;20268;-63
2021/10/08 00:33:01;;;;;;;6.70;4.10;;;5.60;99.90;;;;;;5015229;28;20208;-63
2021/10/08 00:35:27;;;;;;;4.87;4.40;;;5.50;99.90;;;;;;5015035;28;20413;-64
2021/10/08 00:37:53;;;;;;;4.80;4.27;;;5.60;99.90;;;;;;5014445;28;20504;-64
2021/10/08 00:40:19;;;;;;;4.03;3.67;;;5.50;99.90;;;;;;5014593;28;20221;-64
2021/10/08 00:42:47;;;;;;;6.00;4.20;;;5.50;99.90;;;;;;5015012;28;20418;-64
2021/10/08 00:45:13;;;;;;;4.60;4.20;;;5.50;99.90;;;;;;5014584;28;20531;-64
2021/10/08 00:47:39;;;;;;;4.40;3.60;;;5.50;99.90;;;;;;5014762;28;20471;-64
2021/10/08 00:50:07;;;;;;;4.30;3.90;;;5.50;99.90;;;;;;5014377;28;21133;-63
2021/10/08 00:52:32;;;;;;;6.40;4.20;;;5.60;99.90;;;;;;5015886;28;20189;-63
2021/10/08 00:54:58;;;;;;;4.53;4.13;;;5.60;99.90;;;;;;5018893;28;20404;-63
2021/10/08 00:57:24;;;;;;;4.90;4.33;;;5.50;99.90;;;;;;5019032;28;20202;-63
2021/10/08 00:59:50;;;;;;;4.67;4.20;;;5.50;99.90;;;;;;5018291;28;20248;-63
2021/10/08 01:02:16;;;;;;;4.37;3.97;;;5.60;99.90;;;;;;5018704;28;20173;-63
2021/10/08 01:04:43;;;;;;;5.57;5.17;;;5.60;99.90;;;;;;5018591;28;20506;-63
2021/10/08 01:07:08;;;;;;;5.37;4.00;;;5.60;99.90;;;;;;5018340;28;20407;-64
2021/10/08 01:09:34;;;;;;;5.47;4.50;;;5.50;99.90;;;;;;5019076;28;20959;-62
2021/10/08 01:11:59;;;;;;;5.83;4.80;;;5.60;99.90;;;;;;5018247;28;20197;-63
2021/10/08 01:14:25;;;;;;;4.77;4.17;;;5.60;99.90;;;;;;5018082;28;20217;-63
2021/10/08 01:16:51;;;;;;;8.20;4.53;;;5.60;99.90;;;;;;5018445;28;20163;-64
2021/10/08 01:19:17;;;;;;;4.87;4.30;;;5.50;99.90;;;;;;5017676;28;20192;-63
2021/10/08 01:21:42;;;;;;;5.50;3.80;;;5.50;99.90;;;;;;5017980;28;20206;-62
2021/10/08 01:24:08;;;;;;;4.10;3.70;;;5.50;99.90;;;;;;5018278;28;20414;-63
2021/10/08 01:26:33;;;;;;;3.70;3.40;;;5.50;99.90;;;;;;5018424;28;20179;-64
2021/10/08 01:28:59;;;;;;;3.50;3.20;;;5.50;99.90;;;;;;5018720;28;20261;-62
2021/10/08 01:31:25;;;;;;;4.40;3.40;;;5.50;99.90;;;;;;5018282;28;20190;-63
2021/10/08 01:33:50;;;;;;;5.20;3.50;;;5.50;99.90;;;;;;5018082;28;20200;-63
2021/10/08 01:36:16;;;;;;;3.00;2.80;;;5.50;99.90;;;;;;5017566;28;20270;-62
2021/10/08 01:38:42;;;;;;;2.67;2.57;;;5.50;99.90;;;;;;5016742;28;20307;-64
2021/10/08 01:41:07;;;;;;;3.40;3.10;;;5.50;99.90;;;;;;5019399;28;20414;-64
2021/10/08 01:43:33;;;;;;;3.97;3.60;;;5.50;99.90;;;;;;5019331;28;20176;-63
2021/10/08 01:45:58;;;;;;;3.50;3.20;;;5.50;99.90;;;;;;5019326;28;20607;-63
2021/10/08 01:48:24;;;;;;;4.50;2.80;;;5.50;99.90;;;;;;5018617;28;20201;-63
2021/10/08 01:50:49;;;;;;;3.13;2.47;;;5.50;99.90;;;;;;5018626;28;20168;-64
2021/10/08 01:53:15;;;;;;;2.40;2.20;;;5.50;99.90;;;;;;5019225;28;20248;-64
2021/10/08 01:55:41;;;;;;;3.40;3.10;;;5.50;99.90;;;;;;5018912;28;20178;-62
2021/10/08 01:58:06;;;;;;;2.87;2.57;;;5.50;99.90;;;;;;5019033;28;20277;-63
2021/10/08 02:00:32;;;;;;;2.80;2.60;;;5.40;99.90;;;;;;5018250;28;20195;-64
2021/10/08 02:02:58;;;;;;;3.00;2.77;;;5.40;99.90;;;;;;5018907;28;20207;-63
2021/10/08 02:05:24;;;;;;;3.70;3.40;;;5.40;99.90;;;;;;5018896;28;20406;-63
2021/10/08 02:07:50;;;;;;;3.13;2.90;;;5.40;99.90;;;;;;5018315;28;20174;-63
2021/10/08 02:10:15;;;;;;;3.47;3.17;;;5.40;99.90;;;;;;5018877;28;20195;-63
2021/10/08 02:12:41;;;;;;;3.03;2.83;;;5.40;99.90;;;;;;5018853;28;20990;-63
2021/10/08 02:15:07;;;;;;;5.70;3.07;;;5.40;99.90;;;;;;5018620;28;20174;-63
2021/10/08 02:17:32;;;;;;;3.40;3.10;;;5.30;99.90;;;;;;5018325;28;20166;-63
2021/10/08 02:19:58;;;;;;;3.60;3.30;;;5.30;99.90;;;;;;5017378;28;20485;-63
2021/10/08 02:22:24;;;;;;;3.17;2.90;;;5.30;99.90;;;;;;5016238;28;20179;-63
2021/10/08 02:24:49;;;;;;;3.03;2.83;;;5.30;99.90;;;;;;5017211;28;20227;-63
2021/10/08 02:27:15;;;;;;;3.10;2.80;;;5.30;99.90;;;;;;5017534;28;20171;-63
2021/10/08 02:29:40;;;;;;;3.10;2.80;;;5.30;99.90;;;;;;5015833;28;20193;-63
2021/10/08 02:32:06;;;;;;;3.60;3.30;;;5.30;99.90;;;;;;5016387;28;20637;-64
2021/10/08 02:34:32;;;;;;;3.60;3.30;;;5.30;99.90;;;;;;5016074;28;20204;-63
2021/10/08 02:36:57;;;;;;;2.10;2.00;;;5.20;99.90;;;;;;5016832;28;20171;-62
2021/10/08 02:39:23;;;;;;;3.03;2.83;;;5.20;99.90;;;;;;5016126;28;20227;-63
2021/10/08 02:41:49;;;;;;;3.33;3.03;;;5.20;99.90;;;;;;5016956;28;20518;-62
2021/10/08 02:44:15;;;;;;;3.00;2.80;;;5.10;99.90;;;;;;5018750;28;20187;-63
2021/10/08 02:46:41;;;;;;;3.93;2.50;;;5.10;99.90;;;;;;5018882;28;20411;-63
2021/10/08 02:49:06;;;;;;;2.73;2.53;;;5.10;99.90;;;;;;5017961;28;20201;-63
2021/10/08 02:51:33;;;;;;;3.37;3.07;;;5.10;99.90;;;;;;5018440;28;20796;-63
2021/10/08 02:54:00;;;;;;;3.17;2.97;;;5.10;99.90;;;;;;5018436;28;20200;-61
2021/10/08 02:56:26;;;;;;;2.83;2.63;;;5.10;99.90;;;;;;5018409;28;20412;-63
2021/10/08 02:58:52;;;;;;;2.87;2.57;;;5.00;99.90;;;;;;5018471;28;20951;-61
2021/10/08 03:01:17;;;;;;;2.60;1.80;;;5.00;99.90;;;;;;5019053;28;20416;-63
2021/10/08 03:03:43;;;;;;;2.30;2.10;;;4.90;99.90;;;;;;5018444;28;20252;-63
2021/10/08 03:06:08;;;;;;;2.90;2.70;;;4.90;99.90;;;;;;5018898;28;20233;-63
2021/10/08 03:08:34;;;;;;;2.23;2.10;;;4.90;99.90;;;;;;5018438;28;20566;-63
2021/10/08 03:11:00;;;;;;;2.17;2.07;;;4.90;99.90;;;;;;5018837;28;20198;-62
2021/10/08 03:13:25;;;;;;;3.10;2.60;;;4.90;99.90;;;;;;5018132;28;20213;-63
2021/10/08 03:15:51;;;;;;;2.50;2.17;;;4.90;99.90;;;;;;5018167;28;20166;-64
2021/10/08 03:18:16;;;;;;;2.50;2.30;;;4.90;99.90;;;;;;5018116;28;20403;-63
2021/10/08 03:20:42;;;;;;;2.00;1.90;;;4.80;99.90;;;;;;5018491;28;20200;-63
2021/10/08 03:23:08;;;;;;;2.70;2.40;;;4.70;99.90;;;;;;5018648;28;20639;-63
2021/10/08 03:25:33;;;;;;;2.37;2.17;;;4.70;99.90;;;;;;5020727;28;20273;-64
2021/10/08 03:27:59;;;;;;;2.73;2.53;;;4.60;99.90;;;;;;5021368;28;20181;-62
2021/10/08 03:30:25;;;;;;;2.90;2.70;;;4.60;99.90;;;;;;5004009;28;20458;-64
2021/10/08 03:32:50;;;;;;;3.70;3.40;;;4.60;99.90;;;;;;5021834;28;20254;-65
2021/10/08 03:35:16;;;;;;;2.00;1.90;;;4.60;99.90;;;;;;5022093;28;20233;-64
2021/10/08 03:40:29;;;;;;;2.30;2.20;;;4.60;99.90;;;;;;5019885;28;20220;-65
2021/10/08 03:42:57;;;;;;;2.60;2.40;;;4.60;99.90;;;;;;5020688;28;20412;-65
2021/10/08 03:45:29;;;;;;;2.60;2.40;;;4.50;99.90;;;;;;5022015;28;20432;-65
2021/10/08 03:48:08;;;;;;;2.60;2.00;;;4.50;99.90;;;;;;5003535;28;20413;-60
2021/10/08 03:50:34;;;;;;;2.00;1.90;;;4.60;99.90;;;;;;5021785;28;20437;-63
2021/10/08 03:53:00;;;;;;;2.27;2.07;;;4.60;99.90;;;;;;5021805;28;20544;-65
2021/10/08 03:55:25;;;;;;;2.70;2.50;;;4.60;99.90;;;;;;5023295;28;20192;-65
2021/10/08 03:57:51;;;;;;;2.17;2.07;;;4.50;99.90;;;;;;5004736;28;20536;-64
2021/10/08 04:00:16;;;;;;;2.20;2.00;;;5.80;99.90;;;;;;5022040;28;20331;-63
2021/10/08 04:02:42;;;;;;;1.97;1.87;;;4.50;99.90;;;;;;5021169;28;20249;-64
2021/10/08 04:05:08;;;;;;;2.23;2.13;;;4.50;99.90;;;;;;5021770;28;20169;-65
2021/10/08 04:07:33;;;;;;;2.40;2.20;;;4.40;99.90;;;;;;5019838;28;20531;-65
2021/10/08 04:09:59;;;;;;;2.40;2.20;;;4.40;99.90;;;;;;5020096;28;20183;-63
2021/10/08 04:12:25;;;;;;;1.73;1.63;;;4.40;99.90;;;;;;5020358;28;20161;-63
2021/10/08 04:14:51;;;;;;;2.10;1.93;;;4.40;99.90;;;;;;5020191;28;20196;-64
2021/10/08 04:17:17;;;;;;;2.00;1.90;;;4.40;99.90;;;;;;5018585;28;20405;-65
2021/10/08 04:19:42;;;;;;;1.90;1.80;;;4.30;99.90;;;;;;5019929;28;20325;-65
2021/10/08 04:22:08;;;;;;;2.20;1.77;;;4.30;99.90;;;;;;5021173;28;20630;-64
2021/10/08 04:24:33;;;;;;;2.50;2.40;;;4.30;99.90;;;;;;5021744;28;20181;-63
2021/10/08 04:26:59;;;;;;;2.50;2.30;;;4.30;99.90;;;;;;5020685;28;20188;-64
2021/10/08 04:29:24;;;;;;;2.17;2.07;;;4.30;99.90;;;;;;5021907;28;20201;-65
2021/10/08 04:31:50;;;;;;;1.70;1.60;;;4.20;99.90;;;;;;5022678;28;20178;-64
2021/10/08 04:34:15;;;;;;;2.00;1.80;;;4.20;99.90;;;;;;5023157;28;20571;-63
2021/10/08 04:36:41;;;;;;;2.17;1.90;;;4.20;99.90;;;;;;5024406;28;20180;-65
2021/10/08 04:39:07;;;;;;;3.07;2.13;;;4.20;99.90;;;;;;5023609;28;20228;-64
2021/10/08 04:41:33;;;;;;;2.60;2.43;;;4.10;99.90;;;;;;5024499;28;20181;-65
2021/10/08 04:43:58;;;;;;;2.27;2.13;;;4.40;99.90;;;;;;5025620;28;20416;-64
2021/10/08 04:46:24;;;;;;;2.00;1.90;;;4.10;99.90;;;;;;5025229;28;20184;-64
2021/10/08 04:48:50;;;;;;;4.90;2.07;;;4.30;99.90;;;;;;5025096;28;20251;-65
2021/10/08 04:51:15;;;;;;;2.80;2.60;;;4.10;99.90;;;;;;5007939;28;20232;-64
2021/10/08 04:53:41;;;;;;;3.00;1.93;;;4.10;99.90;;;;;;5025414;28;20193;-64
2021/10/08 04:56:06;;;;;;;2.40;2.20;;;4.10;99.90;;;;;;5025199;28;20718;-63
2021/10/08 04:58:32;;;;;;;2.70;2.47;;;4.10;99.90;;;;;;5025020;28;20260;-65
2021/10/08 05:00:58;;;;;;;2.27;2.10;;;4.00;99.90;;;;;;5024823;28;20178;-64
2021/10/08 05:03:23;;;;;;;2.83;2.63;;;4.00;99.90;;;;;;5007981;28;20177;-64
2021/10/08 05:05:51;;;;;;;2.83;2.63;;;5.90;99.90;;;;;;5026013;28;20209;-63
2021/10/08 05:08:17;;;;;;;3.43;2.70;;;3.70;99.90;;;;;;5025202;28;20169;-65
2021/10/08 05:10:43;;;;;;;4.80;2.93;;;3.80;99.90;;;;;;5025874;28;20427;-64
2021/10/08 05:13:09;;;;;;;3.33;2.57;;;3.90;99.90;;;;;;5027172;28;20463;-65
2021/10/08 05:15:35;;;;;;;2.50;2.30;;;4.50;99.90;;;;;;5025498;28;20955;-64
2021/10/08 05:18:01;;;;;;;2.77;2.57;;;3.80;99.90;;;;;;5025104;28;20506;-65
2021/10/08 05:20:26;;;;;;;2.60;2.37;;;3.90;99.90;;;;;;5026715;28;20216;-64
2021/10/08 05:22:52;;;;;;;2.47;2.30;;;3.90;99.90;;;;;;5026630;28;20177;-64
2021/10/08 05:25:18;;;;;;;2.43;2.23;;;3.80;99.90;;;;;;5027067;28;20268;-62
2021/10/08 05:27:43;;;;;;;2.27;2.13;;;3.80;99.90;;;;;;5027005;28;20692;-65
2021/10/08 05:30:10;;;;;;;2.37;2.27;;;3.50;99.90;;;;;;5026900;28;20388;-63
2021/10/08 05:32:36;;;;;;;3.23;2.83;;;4.20;99.90;;;;;;5027452;28;20193;-64
2021/10/08 05:35:02;;;;;;;2.87;2.27;;;4.00;99.90;;;;;;5027882;28;21140;-64
2021/10/08 05:37:27;;;;;;;2.80;2.60;;;3.80;99.90;;;;;;5027281;28;20193;-65
2021/10/08 05:39:53;;;;;;;2.57;2.20;;;3.50;99.90;;;;;;5030269;28;20990;-62
2021/10/08 05:42:19;;;;;;;2.60;2.40;;;3.70;99.90;;;;;;5032140;28;20185;-63
2021/10/08 05:44:44;;;;;;;2.27;1.90;;;3.60;99.90;;;;;;5013983;28;20423;-63
2021/10/08 05:47:10;;;;;;;3.73;3.13;;;3.60;99.90;;;;;;5031876;28;20189;-64
2021/10/08 05:49:35;;;;;;;2.90;2.70;;;3.50;99.90;;;;;;5030298;28;20201;-64
2021/10/08 05:52:01;;;;;;;4.57;3.23;;;3.50;99.90;;;;;;5013718;28;20212;-62
2021/10/08 05:54:26;;;;;;;3.17;2.87;;;3.70;99.90;;;;;;5030024;28;20201;-63
2021/10/08 05:56:52;;;;;;;4.00;3.70;;;3.70;99.90;;;;;;5031275;28;20166;-64
2021/10/08 05:59:17;;;;;;;3.80;2.80;;;3.70;99.90;;;;;;5030698;28;20239;-64
2021/10/08 06:01:43;;;;;;;3.83;3.50;;;3.60;99.90;;;;;;5013733;28;20172;-62
2021/10/08 06:04:09;;;;;;;2.90;2.70;;;3.40;99.90;;;;;;5031425;28;20384;-62
2021/10/08 06:06:35;;;;;;;4.37;3.73;;;3.90;99.90;;;;;;5031418;28;20184;-64
2021/10/08 06:09:01;;;;;;;3.60;3.23;;;3.60;99.90;;;;;;5029852;28;20436;-63
2021/10/08 06:11:29;;;;;;;3.67;3.37;;;5.10;99.90;;;;;;5030908;28;20177;-65
2021/10/08 06:13:55;;;;;;;3.20;2.90;;;5.00;99.90;;;;;;5030888;28;20868;-64
2021/10/08 06:16:20;;;;;;;3.57;3.27;;;4.50;99.90;;;;;;5030377;28;20440;-63
2021/10/08 06:18:46;;;;;;;4.77;4.07;;;3.40;99.90;;;;;;5012919;28;20686;-63
2021/10/08 06:21:11;;;;;;;3.53;3.23;;;3.50;99.90;;;;;;5030876;28;20192;-64
2021/10/08 06:23:38;;;;;;;5.77;5.17;;;3.80;99.90;;;;;;5030833;28;20239;-63
2021/10/08 06:26:04;;;;;;;6.13;4.50;;;5.30;99.90;;;;;;5029844;28;20713;-63
2021/10/08 06:28:30;;;;;;;22.73;5.73;;;3.90;99.90;;;;;;5028508;28;20944;-64
2021/10/08 06:30:56;;;;;;;11.70;4.33;;;4.00;99.90;;;;;;5028887;28;20408;-65
2021/10/08 06:33:21;;;;;;;4.70;4.30;;;4.00;99.90;;;;;;5028824;28;20192;-64
2021/10/08 06:35:47;;;;;;;6.03;5.53;;;4.10;99.90;;;;;;5010572;28;20169;-64
2021/10/08 06:38:13;;;;;;;5.60;5.10;;;4.30;99.90;;;;;;5027537;28;20189;-64
2021/10/08 06:40:39;;;;;;;5.47;4.20;;;4.40;99.90;;;;;;5027770;28;20244;-64
2021/10/08 06:43:05;;;;;;;3.13;2.83;;;4.50;99.90;;;;;;5027630;28;20423;-64
2021/10/08 06:45:33;;;;;;;4.57;2.77;;;4.70;99.90;;;;;;5025720;28;20435;-64
2021/10/08 06:47:59;;;;;;;7.70;6.33;;;4.80;99.90;;;;;;5007596;28;20512;-63
2021/10/08 06:50:24;;;;;;;7.83;4.43;;;5.00;99.90;;;;;;5021860;28;20463;-65
2021/10/08 06:52:50;;;;;;;9.77;6.97;;;5.20;99.90;;;;;;5023302;28;20188;-65
2021/10/08 06:55:15;;;;;;;13.03;7.87;;;5.60;99.90;;;;;;5021946;28;20657;-65
2021/10/08 06:57:41;;;;;;;8.03;6.70;;;5.70;99.90;;;;;;5020667;28;20660;-64
2021/10/08 07:00:08;;;;;;;9.60;7.10;;;5.80;99.90;;;;;;5020484;28;20190;-64
2021/10/08 07:02:33;;;;;;;9.33;6.87;;;6.00;99.90;;;;;;5004019;28;20181;-64
2021/10/08 07:04:59;;;;;;;9.57;7.50;;;6.30;99.90;;;;;;5021618;28;20784;-64
2021/10/08 07:07:26;;;;;;;8.70;7.23;;;6.50;99.90;;;;;;5021372;28;20170;-64
2021/10/08 07:09:51;;;;;;;13.00;7.80;;;6.70;99.90;;;;;;5022416;28;20195;-64
2021/10/08 07:12:17;;;;;;;14.03;8.83;;;6.80;99.90;;;;;;5020220;28;20421;-64
2021/10/08 07:14:42;;;;;;;12.77;9.10;;;7.10;99.90;;;;;;5020912;28;20287;-64
2021/10/08 07:17:08;;;;;;;9.27;7.70;;;7.20;99.90;;;;;;5020186;28;20173;-64
2021/10/08 07:19:35;;;;;;;10.90;8.13;;;7.30;99.90;;;;;;5018846;28;20242;-63
2021/10/08 07:22:01;;;;;;;13.97;10.70;;;7.40;99.90;;;;;;5018980;28;20173;-64
2021/10/08 07:24:26;;;;;;;12.13;8.37;;;7.50;99.90;;;;;;5018299;28;20418;-63
2021/10/08 07:26:52;;;;;;;8.53;7.63;;;7.60;99.90;;;;;;5000623;28;20942;-64
2021/10/08 07:29:18;;;;;;;12.23;8.70;;;7.80;99.90;;;;;;5017615;28;20728;-65
2021/10/08 07:31:43;;;;;;;10.13;9.13;;;7.90;99.90;;;;;;5018210;28;20434;-65
2021/10/08 07:34:09;;;;;;;9.40;7.67;;;8.10;99.90;;;;;;5018423;28;20601;-64
2021/10/08 07:36:35;;;;;;;11.67;8.43;;;8.20;99.90;;;;;;5017788;28;20212;-63
2021/10/08 07:39:01;;;;;;;10.30;8.97;;;8.30;99.90;;;;;;5016464;28;20208;-64
2021/10/08 07:41:27;;;;;;;13.57;6.10;;;8.40;99.90;;;;;;5016382;28;20411;-64
2021/10/08 07:43:52;;;;;;;7.47;6.67;;;8.50;99.90;;;;;;5016437;28;20412;-64
2021/10/08 07:46:18;;;;;;;8.43;7.50;;;8.60;99.90;;;;;;5017263;28;21010;-65
2021/10/08 07:48:44;;;;;;;10.20;8.20;;;8.70;99.90;;;;;;4999139;28;20193;-65
2021/10/08 07:51:09;;;;;;;9.13;7.93;;;8.90;99.90;;;;;;5016967;28;20176;-65
2021/10/08 07:53:35;;;;;;;8.40;7.40;;;9.20;99.90;;;;;;5018024;28;20201;-63
2021/10/08 07:56:01;;;;;;;9.87;8.20;;;9.40;99.90;;;;;;5019013;28;20180;-65
2021/10/08 07:58:27;;;;;;;9.20;8.13;;;9.50;99.90;;;;;;5019985;28;20400;-65
2021/10/08 08:00:55;;;;;;;8.17;7.37;;;9.80;99.90;;;;;;5022213;28;20435;-65
2021/10/08 08:03:20;;;;;;;8.30;7.07;;;10.00;99.90;;;;;;5022424;28;20480;-64
2021/10/08 08:05:46;;;;;;;10.40;7.27;;;10.20;99.90;;;;;;5023381;28;20893;-63
2021/10/08 08:08:12;;;;;;;8.20;6.43;;;10.30;99.90;;;;;;5023891;28;20169;-63
2021/10/08 08:10:38;;;;;;;8.40;6.73;;;10.50;99.90;;;;;;5027364;28;20197;-63
2021/10/08 08:13:03;;;;;;;7.83;7.13;;;10.60;99.90;;;;;;5027384;28;20892;-64
2021/10/08 08:15:29;;;;;;;8.30;7.50;;;10.80;99.90;;;;;;5010662;28;20676;-65
2021/10/08 08:17:54;;;;;;;6.80;6.10;;;11.20;99.90;;;;;;5027495;28;20173;-64
2021/10/08 08:20:20;;;;;;;6.60;5.97;;;11.30;99.90;;;;;;5026495;28;20220;-64
2021/10/08 08:22:45;;;;;;;6.00;5.40;;;11.60;99.90;;;;;;5027982;28;20177;-64
2021/10/08 08:25:11;;;;;;;7.70;6.17;;;11.80;99.90;;;;;;5029036;28;20173;-65
2021/10/08 08:27:36;;;;;;;5.83;5.33;;;12.00;99.90;;;;;;5027646;28;20658;-65
2021/10/08 08:30:05;;;;;;;5.80;5.20;;;12.30;99.90;;;;;;5028007;28;20212;-65
2021/10/08 08:32:32;;;;;;;6.40;5.77;;;12.50;99.90;;;;;;5027815;28;20651;-64
2021/10/08 08:34:58;;;;;;;5.23;4.73;;;12.70;99.90;;;;;;5026691;28;20463;-64
2021/10/08 08:37:25;;;;;;;5.50;4.70;;;13.70;99.90;;;;;;5027274;28;20408;-64
2021/10/08 08:39:50;;;;;;;5.43;4.93;;;13.20;99.90;;;;;;5026677;28;20447;-65
2021/10/08 08:42:18;;;;;;;4.60;4.27;;;13.70;99.90;;;;;;5023098;28;20415;-66
2021/10/08 08:44:43;;;;;;;6.33;4.20;;;14.00;99.90;;;;;;5022911;28;20192;-64
2021/10/08 08:47:15;;;;;;;5.90;3.97;;;14.70;99.90;;;;;;5021258;28;20448;-64
2021/10/08 08:49:40;;;;;;;5.03;4.53;;;14.50;99.90;;;;;;5018790;28;20234;-65
2021/10/08 08:52:06;;;;;;;4.20;3.80;;;15.00;99.90;;;;;;5018453;28;20412;-64
2021/10/08 08:54:31;;;;;;;4.73;4.43;;;15.10;99.30;;;;;;5017093;28;20204;-65
2021/10/08 08:56:57;;;;;;;2.93;2.73;;;15.30;98.90;;;;;;5016721;28;20186;-66
2021/10/08 08:59:22;;;;;;;4.43;3.40;;;15.50;97.70;;;;;;5015341;28;20685;-66
2021/10/08 09:02:03;;;;;;;4.03;3.80;;;15.80;97.50;;;;;;5015406;28;20188;-65
2021/10/08 09:04:30;;;;;;;4.40;4.10;;;15.90;96.90;;;;;;5015930;28;20173;-65
2021/10/08 09:06:57;;;;;;;4.50;4.10;;;16.00;96.70;;;;;;5015750;28;20407;-65
2021/10/08 09:09:24;;;;;;;4.40;4.00;;;16.30;96.20;;;;;;5016617;28;20436;-64
2021/10/08 09:11:51;;;;;;;3.77;3.57;;;17.00;96.60;;;;;;5019043;28;20404;-66
2021/10/08 09:14:21;;;;;;;5.43;4.30;;;17.50;95.80;;;;;;5022210;28;20460;-65
2021/10/08 09:17:16;;;;;;;4.73;4.23;;;17.50;95.20;;;;;;5025578;28;20416;-65
2021/10/08 09:20:10;;;;;;;3.50;3.20;;;17.50;94.00;;;;;;5019102;28;20440;-65
2021/10/08 09:22:41;;;;;;;4.30;3.60;;;17.50;93.70;;;;;;5030466;28;20412;-65
2021/10/08 09:25:26;;;;;;;3.67;3.40;;;18.10;93.70;;;;;;5030286;28;20408;-65
2021/10/08 09:27:55;;;;;;;3.30;3.00;;;18.30;93.80;;;;;;5028829;28;20426;-66
2021/10/08 09:30:35;;;;;;;3.90;3.60;;;18.80;92.70;;;;;;5026478;28;20513;-65
2021/10/08 09:33:00;;;;;;;3.00;2.80;;;18.70;91.00;;;;;;5024965;28;20451;-66
2021/10/08 09:35:27;;;;;;;2.40;2.30;;;19.40;92.30;;;;;;5021777;28;20415;-66
2021/10/08 09:38:01;;;;;;;2.50;2.40;;;19.40;90.00;;;;;;5020907;28;20626;-63
2021/10/08 09:40:50;;;;;;;3.30;3.10;;;19.20;90.10;;;;;;5020917;28;20458;-66
2021/10/08 09:43:22;;;;;;;3.47;2.77;;;19.10;88.30;;;;;;5018979;28;20922;-66
2021/10/08 09:45:56;;;;;;;2.70;2.50;;;19.40;89.60;;;;;;5017045;28;20812;-65
2021/10/08 09:48:34;;;;;;;3.07;2.87;;;19.70;90.70;;;;;;5016972;28;20401;-64
2021/10/08 09:51:14;;;;;;;2.53;2.43;;;20.20;90.90;;;;;;5018438;28;20395;-66
2021/10/08 09:53:49;;;;;;;3.17;2.67;;;20.40;86.90;;;;;;5018508;28;20439;-67
2021/10/08 09:56:33;;;;;;;2.80;2.60;;;20.40;86.80;;;;;;5019225;28;20395;-65
2021/10/08 09:58:59;;;;;;;2.70;2.30;;;20.70;87.10;;;;;;5020991;28;20976;-67
2021/10/08 10:01:27;;;;;;;3.63;2.17;;;20.80;84.50;;;;;;5023430;28;20913;-66
2021/10/08 10:03:53;;;;;;;2.13;2.03;;;20.90;87.90;;;;;;5022973;28;20431;-65
2021/10/08 10:06:20;;;;;;;3.40;2.27;;;21.00;84.40;;;;;;5024168;28;20411;-67
2021/10/08 10:08:47;;;;;;;2.23;2.13;;;20.90;84.40;;;;;;5025959;28;20428;-66
2021/10/08 10:11:15;;;;;;;2.47;2.27;;;21.20;81.80;;;;;;5026849;28;20460;-66
2021/10/08 10:13:45;;;;;;;2.80;2.60;;;21.50;80.50;;;;;;5027384;28;20479;-67
2021/10/08 10:16:14;;;;;;;2.10;2.00;;;21.70;85.20;;;;;;5025456;28;20487;-67
2021/10/08 10:18:41;;;;;;;2.13;2.03;;;22.10;80.40;;;;;;5022377;28;20393;-67
2021/10/08 10:21:07;;;;;;;2.30;2.10;;;22.20;83.80;;;;;;5018916;28;20450;-67
2021/10/08 10:23:34;;;;;;;1.73;1.63;;;22.50;80.80;;;;;;5016535;28;20423;-66
2021/10/08 10:26:00;;;;;;;2.90;2.13;;;22.90;78.20;;;;;;5013630;28;20400;-67
2021/10/08 10:28:26;;;;;;;1.70;1.60;;;23.40;82.90;;;;;;5014345;28;20951;-66
2021/10/08 10:30:52;;;;;;;2.00;1.90;;;23.40;76.90;;;;;;5014523;28;20161;-67
2021/10/08 10:33:25;;;;;;;1.87;1.63;;;23.40;76.20;;;;;;5014336;28;20450;-66
2021/10/08 10:35:53;;;;;;;2.10;2.00;;;23.40;76.40;;;;;;5014363;28;20297;-67
2021/10/08 10:38:35;;;;;;;1.77;1.63;;;24.10;79.70;;;;;;5015003;28;20404;-67
2021/10/08 10:41:10;;;;;;;1.70;1.60;;;24.60;75.30;;;;;;5016617;28;20404;-67
2021/10/08 10:43:43;;;;;;;2.50;1.57;;;25.00;74.80;;;;;;5018542;28;20396;-67
2021/10/08 10:52:02;;;;;;;1.73;1.63;;;24.50;71.50;;;;;;5019807;28;20404;-67
2021/10/08 10:54:37;;;;;;;1.90;1.70;;;24.80;76.00;;;;;;5021295;28;20506;-67
2021/10/08 10:57:07;;;;;;;1.60;1.50;;;25.30;73.90;;;;;;5022750;28;20768;-67
2021/10/08 10:59:42;;;;;;;1.87;1.77;;;25.20;71.80;;;;;;5003843;28;20452;-67
2021/10/08 11:02:16;;;;;;;2.00;1.90;;;25.40;70.60;;;;;;5019951;28;20410;-67
2021/10/08 11:04:43;;;;;;;1.77;1.67;;;25.60;72.40;;;;;;5018295;28;20404;-67
2021/10/08 11:07:11;;;;;;;1.87;1.73;;;26.20;73.50;;;;;;5016216;28;20412;-67
2021/10/08 11:09:38;;;;;;;2.30;2.20;;;26.00;62.40;;;;;;5015337;28;20436;-67
2021/10/08 11:12:36;;;;;;;2.97;2.27;;;25.80;69.40;;;;;;5015540;28;20412;-67
2021/10/08 11:15:20;;;;;;;2.07;1.97;;;25.60;67.40;;;;;;5014648;28;20455;-67
2021/10/08 11:17:57;;;;;;;2.23;2.03;;;26.30;67.70;;;;;;5014131;28;20503;-67
2021/10/08 11:20:25;;;;;;;2.00;1.90;;;26.40;64.30;;;;;;5014175;28;20424;-68
2021/10/08 11:22:52;;;;;;;2.20;2.10;;;26.40;63.90;;;;;;5014662;28;20400;-67
2021/10/08 11:25:17;;;;;;;2.57;2.00;;;26.20;62.70;;;;;;5015121;28;20943;-67
2021/10/08 11:27:47;;;;;;;2.23;2.13;;;26.50;66.00;;;;;;5015943;28;20400;-67
2021/10/08 11:30:13;;;;;;;2.40;2.20;;;26.70;64.80;;;;;;5015954;28;20263;-67
2021/10/08 11:32:48;;;;;;;2.47;2.27;;;26.80;64.10;;;;;;5017021;28;20443;-68
2021/10/08 11:35:18;;;;;;;1.80;1.70;;;27.60;69.20;;;;;;4999658;28;20177;-67
2021/10/08 11:37:48;;;;;;;2.63;2.43;;;27.60;60.10;;;;;;5017473;28;20408;-67
2021/10/08 11:40:36;;;;;;;1.90;1.80;;;27.70;63.30;;;;;;5017649;28;20484;-67
2021/10/08 11:43:05;;;;;;;4.33;3.93;;;28.30;59.30;;;;;;5018424;28;20400;-68
2021/10/08 11:45:45;;;;;;;1.93;1.83;;;28.30;58.20;;;;;;5017678;28;20987;-68
2021/10/08 11:48:17;;;;;;;3.47;2.43;;;28.20;59.10;;;;;;5017332;28;20487;-68
2021/10/08 11:51:02;;;;;;;2.03;1.77;;;28.10;59.80;;;;;;5015895;28;20447;-68
2021/10/08 11:53:40;;;;;;;1.93;1.80;;;28.50;61.70;;;;;;5014810;28;20484;-68
2021/10/08 11:56:24;;;;;;;2.17;1.93;;;28.20;56.70;;;;;;5015018;28;20443;-68
2021/10/08 11:58:51;;;;;;;2.37;2.27;;;27.90;59.00;;;;;;5014501;28;20510;-68
2021/10/08 12:01:24;;;;;;;1.90;1.80;;;28.00;57.80;;;;;;5013798;28;20917;-67
2021/10/08 12:03:50;;;;;;;2.20;1.97;;;28.00;59.40;;;;;;5013574;28;20443;-68
2021/10/08 12:06:23;;;;;;;1.80;1.70;;;28.30;59.00;;;;;;5013299;28;20932;-68
2021/10/08 12:08:48;;;;;;;1.60;1.50;;;27.90;55.80;;;;;;5013000;28;20185;-68
2021/10/08 12:11:19;;;;;;;3.40;2.00;;;27.80;56.70;;;;;;5013520;28;20404;-68
2021/10/08 12:13:50;;;;;;;2.20;2.00;;;27.80;59.90;;;;;;5012920;28;20239;-67
2021/10/08 12:16:20;;;;;;;2.10;2.00;;;27.90;56.60;;;;;;5013110;28;20519;-68
2021/10/08 12:18:57;;;;;;;1.67;1.33;;;27.70;57.80;;;;;;5012591;28;20424;-68
2021/10/08 12:21:29;;;;;;;2.63;2.43;;;28.50;61.80;;;;;;5014624;28;20438;-68
2021/10/08 12:24:03;;;;;;;1.93;1.70;;;28.40;56.90;;;;;;5013807;28;20404;-68
2021/10/08 12:26:31;;;;;;;2.27;2.17;;;28.80;57.70;;;;;;5015476;28;20414;-68
2021/10/08 12:28:59;;;;;;;2.90;2.53;;;28.30;58.60;;;;;;5014511;28;20428;-68
2021/10/08 12:31:57;;;;;;;2.93;1.90;;;28.20;55.50;;;;;;5015116;28;20404;-68
2021/10/08 12:34:45;;;;;;;2.07;1.97;;;28.40;57.10;;;;;;5015732;28;20482;-68
2021/10/08 12:37:22;;;;;;;1.73;1.63;;;28.50;58.70;;;;;;5017396;28;20407;-68
2021/10/08 12:40:08;;;;;;;1.70;1.60;;;28.80;57.00;;;;;;5017284;28;20447;-68
2021/10/08 12:42:36;;;;;;;1.87;1.77;;;29.00;53.20;;;;;;5022143;28;20400;-69
2021/10/08 12:45:02;;;;;;;1.97;1.83;;;29.70;58.40;;;;;;5018833;28;20433;-68
2021/10/08 12:47:38;;;;;;;2.93;1.73;;;29.60;55.30;;;;;;5015794;28;20418;-70
2021/10/08 12:50:08;;;;;;;4.30;1.77;;;28.80;54.10;;;;;;5018623;28;20522;-70
2021/10/08 12:52:51;;;;;;;2.30;2.03;;;28.80;56.60;;;;;;5015362;28;20396;-69
2021/10/08 12:55:21;;;;;;;2.00;1.70;;;28.50;55.60;;;;;;5016205;28;20416;-69
2021/10/08 12:58:01;;;;;;;2.83;2.60;;;28.50;56.50;;;;;;5017337;28;20423;-69
2021/10/08 13:00:50;;;;;;;1.73;1.63;;;28.50;57.60;;;;;;4996190;28;20424;-69
2021/10/08 13:03:39;;;;;;;2.27;2.07;;;28.90;56.40;;;;;;5014625;28;20400;-70
2021/10/08 13:06:10;;;;;;;2.17;2.07;;;28.80;53.50;;;;;;5013671;28;20760;-70